• Join FlightAware (Why Join?)
  • Login
  • US Flag 
08:13PM EST


 

Airport Tracker/Info


-or-


 

Live Flight TrackerFlight Track Log ✈ PDT4314 ✈ 01-Nov-2013 ✈ KPHL - KBGM

Flight Track Log - Related Links

Times and Time Zones

All times are in EDT time to prevent confusion due to time zone crossing. See the PDT4314 flight status page for this flight to view local times or setup timezone preferences in your user account.

Time Position Orientation Groundspeed Altitude Reporting Facility
EDT Latitude Longitude Course Direction KTS MPH feet Rate Location/Type
04:16PM 39.9000 -75.2500 303° West 127 146 800  Level Philadelphia TRACON
04:17PM 39.9167 -75.2833 303° West 128 147 2,500 1,440 Climbing Philadelphia TRACON
04:18PM 39.9333 -75.3333 294° West 145 167 3,900 1,500 Climbing Philadelphia TRACON
04:19PM 39.9500 -75.3833 294° West 140 161 5,500 1,500 Climbing Philadelphia TRACON
04:20PM 39.9667 -75.4333 294° West 150 173 6,900 1,200 Climbing Philadelphia TRACON
04:21PM 39.9667 -75.4833 270° West 157 181 8,000 1,020 Climbing Philadelphia TRACON
04:22PM 40.0333 -75.4833 360° North 222 255 9,000 420 Climbing Philadelphia TRACON
04:23PM 40.0958 -75.4978 350° North 234 269 9,000 420 Level New York Center
04:24PM 40.1472 -75.5203 341° North 235 270 9,900 900 Climbing New York Center
04:25PM 40.2067 -75.5461 342° North 222 255 10,900 900 Climbing New York Center
04:26PM 40.2464 -75.5897 320° Northwest 197 227 11,800 840 Climbing New York Center
04:27PM 40.2717 -75.6378 305° West 169 194 12,600 720 Climbing New York Center
04:28PM 40.3031 -75.6833 312° West 164 189 13,300 660 Climbing New York Center
04:29PM 40.3283 -75.7261 308° West 164 189 14,000 300 Climbing New York Center
04:30PM 40.3594 -75.7800 307° West 171 197 14,000  Level New York Center
04:31PM 40.4025 -75.8431 312° West 197 227 14,000  Level New York Center
04:32PM 40.4397 -75.9006 310° West 204 235 14,000  Level New York Center
04:33PM 40.4789 -75.9553 313° West 211 243 14,000  Level New York Center
04:34PM 40.5242 -76.0186 313° West 221 254 14,000  Level New York Center
04:35PM 40.5569 -76.0758 307° West 221 254 14,000  Level New York Center
04:36PM 40.6019 -76.1422 312° West 221 254 14,000  Level New York Center
04:37PM 40.6408 -76.2028 310° West 221 254 14,000  Level New York Center
04:38PM 40.6778 -76.2631 309° West 216 249 14,000  Level New York Center
04:39PM 40.7450 -76.2492 North 209 241 14,000  Level New York Center
04:40PM 40.8208 -76.2333 North 239 275 14,000  Level New York Center
04:41PM 40.9000 -76.2314 North 258 297 14,000  Level New York Center
04:42PM 40.9606 -76.2308 360° North 258 297 14,000  Level New York Center
04:43PM 41.0486 -76.2186 North 258 297 14,000  Level New York Center
04:44PM 41.1156 -76.2131 North 263 303 14,000  Level New York Center
04:45PM 41.1883 -76.2161 358° North 257 296 14,100  Climbing New York Center
04:46PM 41.2678 -76.2061 North 257 296 14,100  Level New York Center
04:47PM 41.3433 -76.1956 North 257 296 14,100  Level New York Center
04:48PM 41.4142 -76.1956 360° North 257 296 14,100  Level New York Center
04:49PM 41.4789 -76.1897 North 257 296 14,100 -300 Level New York Center
04:50PM 41.5542 -76.1850 North 257 296 13,500 -900 Descending New York Center
04:51PM 41.6400 -76.1781 North 275 316 12,300 -1,080 Descending New York Center
04:52PM 41.7169 -76.1786 360° North 275 316 11,400 -1,020 Descending New York Center
04:53PM 41.7900 -76.1733 North 269 310 10,300 -1,080 Descending New York Center
04:54PM 41.8550 -76.1647 North 269 310 9,300 -960 Descending New York Center
04:55PM 41.9258 -76.1622 North 262 302 8,400 -1,080 Descending New York Center
04:56PM 42.0006 -76.1208 22° Northeast 253 291 7,200 -1,200 Descending New York Center
04:57PM 42.0589 -76.0781 29° Northeast 253 291 6,100 -1,320 Descending New York Center
04:58PM 42.1194 -76.0214 35° Northeast 252 290 4,600 -1,200 Descending New York Center
04:59PM 42.1611 -75.9744 40° Northeast 224 258 3,700 -1,080 Descending New York Center
05:00PM 42.1897 -75.9403 41° Northeast 174 200 2,500 -720 Descending New York Center
05:01PM 42.2311 -75.8986 37° Northeast 167 192 2,300 -240 Descending New York Center